createdAt,value
2022-09-28T00:00:38.989Z,9.70
2022-09-28T00:02:13.073Z,9.70
2022-09-28T00:03:45.747Z,9.70
2022-09-28T00:05:18.874Z,9.70
2022-09-28T00:06:51.597Z,9.70
2022-09-28T00:08:24.294Z,9.70
2022-09-28T00:09:56.976Z,9.70
2022-09-28T00:11:29.723Z,9.70
2022-09-28T00:13:01.764Z,9.60
2022-09-28T00:14:34.459Z,9.60
2022-09-28T00:16:09.718Z,9.60
2022-09-28T00:17:44.658Z,9.60
2022-09-28T00:19:17.710Z,9.60
2022-09-28T00:20:59.973Z,9.60
2022-09-28T00:22:32.788Z,9.60
2022-09-28T00:24:12.615Z,9.60
2022-09-28T00:25:45.307Z,9.60
2022-09-28T00:27:18.038Z,9.60
2022-09-28T00:28:51.910Z,9.60
2022-09-28T00:30:24.651Z,9.60
2022-09-28T00:32:00.054Z,9.50
2022-09-28T00:33:34.322Z,9.50
2022-09-28T00:35:07.885Z,9.50
2022-09-28T00:36:42.439Z,9.50
2022-09-28T00:38:16.644Z,9.50
2022-09-28T00:39:50.238Z,9.50
2022-09-28T00:41:22.402Z,9.50
2022-09-28T00:42:55.081Z,9.50
2022-09-28T00:44:43.788Z,9.50
2022-09-28T00:46:20.695Z,9.50
2022-09-28T00:47:57.357Z,9.50
2022-09-28T00:49:33.950Z,9.50
2022-09-28T00:51:10.017Z,9.50
2022-09-28T00:52:45.914Z,9.50
2022-09-28T00:54:18.702Z,9.50
2022-09-28T00:55:55.883Z,9.50
2022-09-28T00:57:28.700Z,9.60
2022-09-28T00:59:02.205Z,9.50
2022-09-28T01:00:34.923Z,9.60
2022-09-28T01:02:07.346Z,9.60
2022-09-28T01:03:45.197Z,9.60
2022-09-28T01:05:19.880Z,9.60
2022-09-28T01:06:53.214Z,9.60
2022-09-28T01:08:28.199Z,9.60
2022-09-28T01:10:00.161Z,9.70
2022-09-28T01:11:34.431Z,9.70
2022-09-28T01:13:07.325Z,9.70
2022-09-28T01:14:41.002Z,9.70
2022-09-28T01:16:20.950Z,9.70
2022-09-28T01:18:04.692Z,9.70
2022-09-28T01:20:14.597Z,9.80
2022-09-28T01:21:52.989Z,9.80
2022-09-28T01:24:10.866Z,9.80
2022-09-28T01:25:50.784Z,9.80
2022-09-28T01:27:29.004Z,9.80
2022-09-28T01:29:06.219Z,9.80
2022-09-28T01:30:46.758Z,9.80
2022-09-28T01:32:28.088Z,9.80
2022-09-28T01:34:05.760Z,9.80
2022-09-28T01:35:43.185Z,9.90
2022-09-28T01:37:20.341Z,9.90
2022-09-28T01:38:55.815Z,9.90
2022-09-28T01:40:31.150Z,9.90
2022-09-28T01:42:07.909Z,9.90
2022-09-28T01:43:44.703Z,9.90
2022-09-28T01:45:22.854Z,9.90
2022-09-28T01:47:00.789Z,10.00
2022-09-28T01:48:39.034Z,10.00
2022-09-28T01:50:15.221Z,10.00
2022-09-28T01:51:53.255Z,10.00
2022-09-28T01:53:32.995Z,10.00
2022-09-28T01:55:10.092Z,10.00
2022-09-28T01:56:47.308Z,10.10
2022-09-28T01:58:25.832Z,10.10
2022-09-28T02:00:05.359Z,10.10
2022-09-28T02:01:42.262Z,10.10
2022-09-28T02:03:19.811Z,10.20
2022-09-28T02:04:56.612Z,10.10
2022-09-28T02:06:34.729Z,10.20
2022-09-28T02:08:14.216Z,10.20
2022-09-28T02:09:50.146Z,10.20
2022-09-28T02:11:23.746Z,10.20
2022-09-28T02:13:01.597Z,10.20
2022-09-28T02:14:35.899Z,10.30
2022-09-28T02:16:18.200Z,10.40
2022-09-28T02:17:51.744Z,10.30
2022-09-28T02:19:27.338Z,10.30
2022-09-28T02:21:06.863Z,10.40
2022-09-28T02:22:44.342Z,10.40
2022-09-28T02:24:23.343Z,10.30
2022-09-28T02:26:02.111Z,10.40
2022-09-28T02:27:37.438Z,10.40
2022-09-28T02:29:10.273Z,10.40
2022-09-28T02:30:46.836Z,10.40
2022-09-28T02:32:21.510Z,10.40
2022-09-28T02:33:55.857Z,10.40
2022-09-28T02:35:29.394Z,10.40
2022-09-28T02:37:02.629Z,10.40
2022-09-28T02:38:36.970Z,10.50
2022-09-28T02:40:16.383Z,10.40
2022-09-28T02:42:05.902Z,10.50
2022-09-28T02:43:48.559Z,10.50
2022-09-28T02:45:36.611Z,10.50
2022-09-28T02:47:22.394Z,10.50
2022-09-28T02:49:21.505Z,10.40
2022-09-28T02:51:03.006Z,10.40
2022-09-28T02:52:52.945Z,10.40
2022-09-28T02:54:37.406Z,10.30
2022-09-28T02:56:33.580Z,10.30
2022-09-28T02:58:20.562Z,10.30
2022-09-28T03:00:03.926Z,10.30
2022-09-28T03:01:42.634Z,10.30
2022-09-28T03:03:21.827Z,10.20
2022-09-28T03:05:11.625Z,10.30
2022-09-28T03:06:48.313Z,10.20
2022-09-28T03:08:26.956Z,10.20
2022-09-28T03:10:04.373Z,10.20
2022-09-28T03:11:41.666Z,10.20
2022-09-28T03:13:16.354Z,10.20
2022-09-28T03:14:49.080Z,10.20
2022-09-28T03:16:21.965Z,10.10
2022-09-28T03:17:55.036Z,10.10
2022-09-28T03:19:31.257Z,10.10
2022-09-28T03:21:06.123Z,10.10
2022-09-28T03:22:38.785Z,10.10
2022-09-28T03:24:11.466Z,10.10
2022-09-28T03:25:44.157Z,10.10
2022-09-28T03:27:16.965Z,10.00
2022-09-28T03:28:49.678Z,10.00
2022-09-28T03:30:22.857Z,10.00
2022-09-28T03:31:55.635Z,10.00
2022-09-28T03:33:28.469Z,10.00
2022-09-28T03:35:01.169Z,10.00
2022-09-28T03:36:35.206Z,10.00
2022-09-28T03:38:07.006Z,10.00
2022-09-28T03:39:39.681Z,9.90
2022-09-28T03:41:12.379Z,9.90
2022-09-28T03:42:45.050Z,9.90
2022-09-28T03:44:17.724Z,9.90
2022-09-28T03:45:54.865Z,9.90
2022-09-28T03:47:27.604Z,9.90
2022-09-28T03:49:00.283Z,9.80
2022-09-28T03:50:32.004Z,9.90
2022-09-28T03:52:06.011Z,9.90
2022-09-28T03:53:39.014Z,9.90
2022-09-28T03:55:11.883Z,9.80
2022-09-28T03:56:43.613Z,9.80
2022-09-28T03:58:16.289Z,9.90
2022-09-28T03:59:49.004Z,9.90
2022-09-28T04:01:21.732Z,9.80
2022-09-28T04:02:54.023Z,9.90
2022-09-28T04:04:26.796Z,9.90
2022-09-28T04:05:59.601Z,9.90
2022-09-28T04:07:33.597Z,9.80
2022-09-28T04:09:06.382Z,9.80
2022-09-28T04:10:39.056Z,9.80
2022-09-28T04:12:11.726Z,9.80
2022-09-28T04:13:44.945Z,9.80
2022-09-28T04:15:17.772Z,9.80
2022-09-28T04:16:54.186Z,9.70
2022-09-28T04:18:26.952Z,9.70
2022-09-28T04:19:59.642Z,9.70
2022-09-28T04:21:31.404Z,9.70
2022-09-28T04:23:05.472Z,9.70
2022-09-28T04:24:38.236Z,9.70
2022-09-28T04:26:16.532Z,9.60
2022-09-28T04:28:08.184Z,9.60
2022-09-28T04:29:43.825Z,9.60
2022-09-28T04:31:18.717Z,9.60
2022-09-28T04:32:51.453Z,9.50
2022-09-28T04:34:24.336Z,9.50
2022-09-28T04:35:56.072Z,9.50
2022-09-28T04:37:31.127Z,9.50
2022-09-28T04:39:05.358Z,9.50
2022-09-28T04:40:38.086Z,9.50
2022-09-28T04:42:11.517Z,9.50
2022-09-28T04:43:43.813Z,9.50
2022-09-28T04:45:16.957Z,9.50
2022-09-28T04:46:49.642Z,9.40
2022-09-28T04:48:21.364Z,9.40
2022-09-28T04:49:54.101Z,9.50
2022-09-28T04:51:27.013Z,9.40
2022-09-28T04:53:00.631Z,9.40
2022-09-28T04:54:34.705Z,9.40
2022-09-28T04:56:09.093Z,9.50
2022-09-28T04:57:42.036Z,9.50
2022-09-28T04:59:14.796Z,9.50
2022-09-28T05:00:49.251Z,9.50
2022-09-28T05:02:22.084Z,9.50
2022-09-28T05:03:54.019Z,9.50
2022-09-28T05:05:26.699Z,9.50
2022-09-28T05:06:59.413Z,9.50
2022-09-28T05:08:32.098Z,9.50
2022-09-28T05:10:06.753Z,9.40
2022-09-28T05:11:39.441Z,9.40
2022-09-28T05:13:13.868Z,9.40
2022-09-28T05:14:46.604Z,9.40
2022-09-28T05:16:20.298Z,9.40
2022-09-28T05:17:53.818Z,9.40
2022-09-28T05:19:26.504Z,9.40
2022-09-28T05:20:59.195Z,9.40
2022-09-28T05:22:31.877Z,9.40
2022-09-28T05:24:07.391Z,9.40
2022-09-28T05:25:41.572Z,9.40
2022-09-28T05:27:14.318Z,9.40
2022-09-28T05:28:46.995Z,9.30
2022-09-28T05:30:19.747Z,9.30
2022-09-28T05:31:52.574Z,9.30
2022-09-28T05:33:25.286Z,9.30
2022-09-28T05:35:00.984Z,9.30
2022-09-28T05:36:33.788Z,9.30
2022-09-28T05:38:05.535Z,9.20
2022-09-28T05:39:38.217Z,9.20
2022-09-28T05:41:12.627Z,9.20
2022-09-28T05:42:45.322Z,9.10
2022-09-28T05:44:18.089Z,9.10
2022-09-28T05:45:55.335Z,9.10
2022-09-28T05:47:28.773Z,9.20
2022-09-28T05:49:01.637Z,9.20
2022-09-28T05:50:34.322Z,9.20
2022-09-28T05:52:07.001Z,9.10
2022-09-28T05:53:39.690Z,9.10
2022-09-28T05:55:12.502Z,9.20
2022-09-28T05:56:46.564Z,9.20
2022-09-28T05:58:19.325Z,9.20
2022-09-28T05:59:52.586Z,9.20
2022-09-28T06:01:25.646Z,9.20
2022-09-28T06:03:00.408Z,9.20
2022-09-28T06:04:33.669Z,9.30
2022-09-28T06:06:06.700Z,9.20
2022-09-28T06:07:39.390Z,9.30
2022-09-28T06:09:12.073Z,9.30
2022-09-28T06:10:43.899Z,9.30
2022-09-28T06:12:18.192Z,9.30
2022-09-28T06:13:54.827Z,9.30
2022-09-28T06:15:29.659Z,9.30
2022-09-28T06:17:02.457Z,9.30
2022-09-28T06:18:35.604Z,9.40
2022-09-28T06:20:09.345Z,9.40
2022-09-28T06:21:42.157Z,9.40
2022-09-28T06:23:14.973Z,9.40
2022-09-28T06:24:47.666Z,9.40
2022-09-28T06:26:20.359Z,9.40
2022-09-28T06:27:58.758Z,9.40
2022-09-28T06:29:31.460Z,9.40
2022-09-28T06:31:04.494Z,9.40
2022-09-28T06:32:37.757Z,9.40
2022-09-28T06:34:11.539Z,9.40
2022-09-28T06:35:44.241Z,9.40
2022-09-28T06:37:16.952Z,9.40
2022-09-28T06:38:49.770Z,9.40
2022-09-28T06:40:23.607Z,9.40
2022-09-28T06:41:56.317Z,9.40
2022-09-28T06:43:34.250Z,9.40
2022-09-28T06:45:08.793Z,9.40
2022-09-28T06:46:41.480Z,9.40
2022-09-28T06:48:14.910Z,9.40
2022-09-28T06:49:47.678Z,9.30
2022-09-28T06:51:20.390Z,9.30
2022-09-28T06:52:54.437Z,9.30
2022-09-28T06:54:27.100Z,9.30
2022-09-28T06:56:00.459Z,9.30
2022-09-28T06:57:33.347Z,9.20
2022-09-28T06:59:07.544Z,9.20
2022-09-28T07:00:41.455Z,9.20
2022-09-28T07:02:14.650Z,9.20
2022-09-28T07:03:47.412Z,9.30
2022-09-28T07:05:26.614Z,9.30
2022-09-28T07:06:59.839Z,9.30
2022-09-28T07:08:32.634Z,9.30
2022-09-28T07:10:06.099Z,9.30
2022-09-28T07:11:40.409Z,9.30
2022-09-28T07:13:36.950Z,9.30
2022-09-28T07:15:09.978Z,9.30
2022-09-28T07:17:08.770Z,9.30
2022-09-28T07:18:35.332Z,9.30
2022-09-28T07:20:18.496Z,9.40
2022-09-28T07:22:03.119Z,9.40
2022-09-28T07:23:50.446Z,9.40
2022-09-28T07:25:28.068Z,9.50
2022-09-28T07:27:01.841Z,9.80
2022-09-28T07:28:34.526Z,10.10
2022-09-28T07:30:10.073Z,10.40
2022-09-28T07:31:42.803Z,10.70
2022-09-28T07:33:17.104Z,11.00
2022-09-28T07:34:50.235Z,11.30
2022-09-28T07:36:23.110Z,11.50
2022-09-28T07:38:00.256Z,11.70
2022-09-28T07:39:52.916Z,11.90
2022-09-28T07:41:32.429Z,12.20
2022-09-28T07:43:05.981Z,12.40
2022-09-28T07:44:40.898Z,12.70
2022-09-28T07:46:16.703Z,13.00
2022-09-28T07:47:49.409Z,13.30
2022-09-28T07:49:22.909Z,13.50
2022-09-28T07:50:57.308Z,13.80
2022-09-28T07:52:30.027Z,13.90
2022-09-28T07:54:04.220Z,14.10
2022-09-28T07:55:36.901Z,14.10
2022-09-28T07:57:09.572Z,14.20
2022-09-28T07:58:42.997Z,14.20
2022-09-28T08:00:16.528Z,14.30
2022-09-28T08:01:51.574Z,14.40
2022-09-28T08:03:24.317Z,14.60
2022-09-28T08:04:57.128Z,14.80
2022-09-28T08:06:31.472Z,15.00
2022-09-28T08:08:04.204Z,15.00
2022-09-28T08:09:37.469Z,15.00
2022-09-28T08:11:10.496Z,14.90
2022-09-28T08:12:43.501Z,14.80
2022-09-28T08:14:16.179Z,14.70
2022-09-28T08:15:50.157Z,14.60
2022-09-28T08:17:24.172Z,14.50
2022-09-28T08:18:56.840Z,14.40
2022-09-28T08:20:50.761Z,14.30
2022-09-28T08:22:23.324Z,14.20
2022-09-28T08:23:55.992Z,14.10
2022-09-28T08:25:28.668Z,13.90
2022-09-28T08:27:01.356Z,13.80
2022-09-28T08:28:34.877Z,13.60
2022-09-28T08:30:08.863Z,13.50
2022-09-28T08:31:41.528Z,13.40
2022-09-28T08:33:17.467Z,13.40
2022-09-28T08:34:50.135Z,13.30
2022-09-28T08:36:23.354Z,13.30
2022-09-28T08:37:56.028Z,13.20
2022-09-28T08:39:28.730Z,13.10
2022-09-28T08:41:07.873Z,13.00
2022-09-28T08:42:44.819Z,12.90
2022-09-28T08:44:23.885Z,12.80
2022-09-28T08:45:58.875Z,12.70
2022-09-28T08:47:54.356Z,12.70
2022-09-28T08:49:36.344Z,12.70
2022-09-28T08:51:16.482Z,12.60
2022-09-28T08:52:57.179Z,12.60
2022-09-28T08:54:39.298Z,12.60
2022-09-28T08:56:16.347Z,12.60
2022-09-28T08:57:53.722Z,12.50
2022-09-28T08:59:29.336Z,12.50
2022-09-28T09:01:06.625Z,12.50
2022-09-28T09:02:42.173Z,12.50
2022-09-28T09:04:15.441Z,12.50
2022-09-28T09:06:00.684Z,12.50
2022-09-28T09:08:16.919Z,12.50
2022-09-28T09:10:02.072Z,12.40
2022-09-28T09:11:52.245Z,12.50
2022-09-28T09:13:52.588Z,12.70
2022-09-28T09:15:47.278Z,12.90
2022-09-28T09:17:27.122Z,13.20
2022-09-28T09:19:10.174Z,13.40
2022-09-28T09:20:51.601Z,13.70
2022-09-28T09:22:39.289Z,13.90
2022-09-28T09:24:28.110Z,14.20
2022-09-28T09:26:09.957Z,14.50
2022-09-28T09:28:00.018Z,14.70
2022-09-28T09:29:56.402Z,15.00
2022-09-28T09:31:44.721Z,15.20
2022-09-28T09:33:43.837Z,15.30
2022-09-28T09:35:31.560Z,15.30
2022-09-28T09:37:17.796Z,15.20
2022-09-28T09:39:01.603Z,15.00
2022-09-28T09:40:50.728Z,15.00
2022-09-28T09:42:35.609Z,14.80
2022-09-28T09:44:22.831Z,14.70
2022-09-28T09:46:06.186Z,14.50
2022-09-28T09:47:42.856Z,14.40
2022-09-28T09:49:20.614Z,14.30
2022-09-28T09:50:58.272Z,14.30
2022-09-28T09:52:37.799Z,14.20
2022-09-28T09:54:21.973Z,14.20
2022-09-28T09:56:00.746Z,14.20
2022-09-28T09:57:36.509Z,14.10
2022-09-28T09:59:15.882Z,14.10
2022-09-28T10:00:52.440Z,14.10
2022-09-28T10:02:27.867Z,14.10
2022-09-28T10:04:01.613Z,14.10
2022-09-28T10:05:36.781Z,14.00
2022-09-28T10:07:17.085Z,13.90
2022-09-28T10:08:57.194Z,13.80
2022-09-28T10:10:34.804Z,13.70
2022-09-28T10:12:10.950Z,13.70
2022-09-28T10:13:44.592Z,13.70
2022-09-28T10:15:23.168Z,13.70
2022-09-28T10:16:58.074Z,13.70
2022-09-28T10:18:31.849Z,13.70
2022-09-28T10:20:05.751Z,13.70
2022-09-28T10:21:41.005Z,13.80
2022-09-28T10:23:20.330Z,13.90
2022-09-28T10:24:57.514Z,14.00
2022-09-28T10:26:36.525Z,14.10
2022-09-28T10:28:20.050Z,14.20
2022-09-28T10:29:55.391Z,14.30
2022-09-28T10:31:35.979Z,14.20
2022-09-28T10:33:29.883Z,14.20
2022-09-28T10:35:24.750Z,14.20
2022-09-28T10:37:00.502Z,14.10
2022-09-28T10:38:34.576Z,14.10
2022-09-28T10:40:32.669Z,14.00
2022-09-28T10:42:09.865Z,14.00
2022-09-28T10:44:05.952Z,14.00
2022-09-28T10:45:39.309Z,14.00
2022-09-28T10:47:16.881Z,13.90
2022-09-28T10:48:52.749Z,13.90
2022-09-28T10:50:28.378Z,13.90
2022-09-28T10:52:01.278Z,13.90
2022-09-28T10:53:36.940Z,13.80
2022-09-28T10:55:32.297Z,13.80
2022-09-28T10:57:25.412Z,13.80
2022-09-28T10:58:58.076Z,13.80
2022-09-28T11:00:38.505Z,13.80
2022-09-28T11:02:21.976Z,13.80
2022-09-28T11:03:58.783Z,13.80
2022-09-28T11:05:32.121Z,13.80
2022-09-28T11:07:05.432Z,13.80
2022-09-28T11:08:41.264Z,13.90
2022-09-28T11:10:21.563Z,13.90
2022-09-28T11:11:54.372Z,13.90
2022-09-28T11:13:29.302Z,13.90
2022-09-28T11:15:04.517Z,13.90
2022-09-28T11:16:37.387Z,13.90
2022-09-28T11:18:22.340Z,13.90
2022-09-28T11:19:55.745Z,13.90
2022-09-28T11:21:32.075Z,13.90
2022-09-28T11:23:20.355Z,13.80
2022-09-28T11:24:53.574Z,13.90
2022-09-28T11:26:26.391Z,13.90
2022-09-28T11:28:04.208Z,13.90
2022-09-28T11:29:41.620Z,14.00
2022-09-28T11:31:14.389Z,14.10
2022-09-28T11:32:48.105Z,14.10
2022-09-28T11:34:36.507Z,14.20
2022-09-28T11:36:36.175Z,14.20
2022-09-28T11:38:23.369Z,14.30
2022-09-28T11:40:06.556Z,14.30
2022-09-28T11:41:55.855Z,14.30
2022-09-28T11:43:45.972Z,14.40
2022-09-28T11:45:33.321Z,14.40
2022-09-28T11:47:41.444Z,14.40
2022-09-28T11:49:27.448Z,14.30
2022-09-28T11:51:03.994Z,14.40
2022-09-28T11:52:44.388Z,14.40
2022-09-28T11:54:24.057Z,14.40
2022-09-28T11:56:03.205Z,14.40
2022-09-28T11:57:41.699Z,14.40
2022-09-28T11:59:19.528Z,14.40
2022-09-28T12:00:58.041Z,14.40
2022-09-28T12:02:36.623Z,14.40
2022-09-28T12:04:14.669Z,14.50
2022-09-28T12:05:51.368Z,14.40
2022-09-28T12:07:28.755Z,14.50
2022-09-28T12:09:09.240Z,14.50
2022-09-28T12:10:48.557Z,14.50
2022-09-28T12:12:26.357Z,14.50
2022-09-28T12:14:03.746Z,14.60
2022-09-28T12:16:15.082Z,14.60
2022-09-28T12:17:46.282Z,14.70
2022-09-28T12:19:23.472Z,14.70
2022-09-28T12:21:09.393Z,14.70
2022-09-28T12:22:46.830Z,14.70
2022-09-28T12:24:22.454Z,14.70
2022-09-28T12:25:59.908Z,14.80
2022-09-28T12:27:41.009Z,14.70
2022-09-28T12:29:19.631Z,14.70
2022-09-28T12:30:53.331Z,14.70
2022-09-28T12:32:35.533Z,14.70
2022-09-28T12:34:10.891Z,14.60
2022-09-28T12:36:04.092Z,14.60
2022-09-28T12:37:54.548Z,14.60
2022-09-28T12:39:56.895Z,14.60
2022-09-28T12:41:43.692Z,14.60
2022-09-28T12:43:40.501Z,14.60
2022-09-28T12:45:28.081Z,14.50
2022-09-28T12:47:20.900Z,14.60
2022-09-28T12:51:25.961Z,14.60
2022-09-28T12:53:19.306Z,14.60
2022-09-28T12:55:18.038Z,14.60
2022-09-28T12:57:01.924Z,14.60
2022-09-28T12:58:49.289Z,14.60
2022-09-28T13:00:24.636Z,14.60
2022-09-28T13:02:14.792Z,14.60
2022-09-28T13:04:32.145Z,14.60
2022-09-28T13:06:22.194Z,14.60
2022-09-28T13:08:00.719Z,14.60
2022-09-28T13:09:40.852Z,14.60
2022-09-28T13:11:22.259Z,14.60
2022-09-28T13:13:13.721Z,14.60
2022-09-28T13:15:09.776Z,14.70
2022-09-28T13:16:47.339Z,14.70
2022-09-28T13:18:28.484Z,14.70
2022-09-28T13:20:13.001Z,14.80
2022-09-28T13:21:56.607Z,14.70
2022-09-28T13:23:36.352Z,14.80
2022-09-28T13:25:15.349Z,14.80
2022-09-28T13:26:48.704Z,14.80
2022-09-28T13:28:27.009Z,14.80
2022-09-28T13:30:03.510Z,14.80
2022-09-28T13:31:41.034Z,14.70
2022-09-28T13:33:19.644Z,14.70
2022-09-28T13:34:52.427Z,14.70
2022-09-28T13:36:39.168Z,14.70
2022-09-28T13:38:53.757Z,14.70
2022-09-28T13:41:11.753Z,14.70
2022-09-28T13:43:02.349Z,14.70
2022-09-28T13:44:54.330Z,14.60
2022-09-28T13:46:35.102Z,14.60
2022-09-28T13:48:20.534Z,14.70
2022-09-28T13:50:06.618Z,14.70
2022-09-28T13:51:48.736Z,14.70
2022-09-28T13:53:28.280Z,14.70
2022-09-28T13:55:15.537Z,14.70
2022-09-28T13:56:57.728Z,14.80
2022-09-28T13:58:35.945Z,14.80
2022-09-28T14:00:18.325Z,14.70
2022-09-28T14:01:57.343Z,14.80
2022-09-28T14:03:44.700Z,14.80
2022-09-28T14:05:47.285Z,14.80
2022-09-28T14:07:24.614Z,14.80
2022-09-28T14:09:41.804Z,14.80
2022-09-28T14:11:43.674Z,14.80
2022-09-28T14:15:48.777Z,14.70
2022-09-28T14:17:54.705Z,14.60
2022-09-28T14:19:32.124Z,14.60
2022-09-28T14:21:42.573Z,14.60
2022-09-28T14:23:32.000Z,14.60
2022-09-28T14:25:11.498Z,14.60
2022-09-28T14:27:23.980Z,14.60
2022-09-28T14:29:10.131Z,14.50
2022-09-28T14:30:50.588Z,14.50
2022-09-28T14:32:25.110Z,14.50
2022-09-28T14:34:01.041Z,14.50
2022-09-28T14:35:40.051Z,14.50
2022-09-28T14:37:39.274Z,14.50
2022-09-28T14:39:39.706Z,14.50
2022-09-28T14:41:27.805Z,14.50
2022-09-28T14:43:25.360Z,14.50
2022-09-28T14:45:38.293Z,14.50
2022-09-28T14:47:35.408Z,14.50
2022-09-28T14:49:42.765Z,14.50
2022-09-28T14:52:02.489Z,14.50
2022-09-28T14:53:40.074Z,14.50
2022-09-28T14:55:16.031Z,14.50
2022-09-28T14:57:07.957Z,14.50
2022-09-28T14:58:42.201Z,14.50
2022-09-28T15:00:22.446Z,14.50
2022-09-28T15:02:00.977Z,14.50
2022-09-28T15:03:37.394Z,14.50
2022-09-28T15:05:16.845Z,14.50
2022-09-28T15:06:52.224Z,14.50
2022-09-28T15:08:36.849Z,14.50
2022-09-28T15:10:23.059Z,14.50
2022-09-28T15:12:04.114Z,14.40
2022-09-28T15:13:40.655Z,14.40
2022-09-28T15:15:26.271Z,14.40
2022-09-28T15:17:03.337Z,14.40
2022-09-28T15:19:13.316Z,14.40
2022-09-28T15:20:48.936Z,14.40
2022-09-28T15:22:22.627Z,14.50
2022-09-28T15:23:55.325Z,14.50
2022-09-28T15:25:30.499Z,14.50
2022-09-28T15:27:05.214Z,14.50
2022-09-28T15:28:44.808Z,14.50
2022-09-28T15:30:24.084Z,14.50
2022-09-28T15:31:56.779Z,14.50
2022-09-28T15:33:48.776Z,14.50
2022-09-28T15:35:26.150Z,14.50
2022-09-28T15:36:58.919Z,14.40
2022-09-28T15:38:33.180Z,14.40
2022-09-28T15:40:13.904Z,14.40
2022-09-28T15:41:48.694Z,14.40
2022-09-28T15:43:26.832Z,14.40
2022-09-28T15:45:07.687Z,14.30
2022-09-28T15:46:42.696Z,14.30
2022-09-28T15:48:20.772Z,14.20
2022-09-28T15:49:58.467Z,14.20
2022-09-28T15:51:46.606Z,14.20
2022-09-28T15:53:19.725Z,14.20
2022-09-28T15:54:52.685Z,14.30
2022-09-28T15:56:26.135Z,14.30
2022-09-28T15:58:17.050Z,14.30
2022-09-28T15:59:56.778Z,14.30
2022-09-28T16:01:36.426Z,14.30
2022-09-28T16:03:23.285Z,14.30
2022-09-28T16:05:00.758Z,14.30
2022-09-28T16:06:34.884Z,14.30
2022-09-28T16:08:21.169Z,14.30
2022-09-28T16:10:06.275Z,14.30
2022-09-28T16:11:41.556Z,14.30
2022-09-28T16:13:19.917Z,14.30
2022-09-28T16:14:53.883Z,14.30
2022-09-28T16:16:29.889Z,14.30
2022-09-28T16:18:04.197Z,14.30
2022-09-28T16:19:39.237Z,14.30
2022-09-28T16:21:43.014Z,14.40
2022-09-28T16:23:21.703Z,14.40
2022-09-28T16:24:57.037Z,14.40
2022-09-28T16:26:32.877Z,14.40
2022-09-28T16:28:06.698Z,14.40
2022-09-28T16:29:41.886Z,14.40
2022-09-28T16:31:29.590Z,14.40
2022-09-28T16:33:05.167Z,14.40
2022-09-28T16:34:38.181Z,14.40
2022-09-28T16:36:14.132Z,14.40
2022-09-28T16:37:50.243Z,14.40
2022-09-28T16:39:22.947Z,14.40
2022-09-28T16:40:57.783Z,14.40
2022-09-28T16:42:31.017Z,14.40
2022-09-28T16:44:03.745Z,14.40
2022-09-28T16:45:36.750Z,14.40
2022-09-28T16:47:09.437Z,14.40
2022-09-28T16:48:48.657Z,14.40
2022-09-28T16:50:22.206Z,14.40
2022-09-28T16:51:54.986Z,14.40
2022-09-28T16:53:46.729Z,14.40
2022-09-28T16:57:13.547Z,14.40
2022-09-28T16:58:49.060Z,14.40
2022-09-28T17:00:23.971Z,14.30
2022-09-28T17:01:57.441Z,14.30
2022-09-28T17:03:30.400Z,14.30
2022-09-28T17:05:03.324Z,14.30
2022-09-28T17:06:36.064Z,14.30
2022-09-28T17:08:14.580Z,14.30
2022-09-28T17:09:48.685Z,14.30
2022-09-28T17:11:24.450Z,14.30
2022-09-28T17:12:57.692Z,14.30
2022-09-28T17:14:32.717Z,14.30
2022-09-28T17:16:10.343Z,14.30
2022-09-28T17:17:43.161Z,14.30
2022-09-28T17:19:20.341Z,14.20
2022-09-28T17:20:56.673Z,14.20
2022-09-28T17:22:29.824Z,14.20
2022-09-28T17:24:02.651Z,14.20
2022-09-28T17:25:37.355Z,14.20
2022-09-28T17:27:16.388Z,14.20
2022-09-28T17:28:49.113Z,14.20
2022-09-28T17:30:23.727Z,14.10
2022-09-28T17:31:58.386Z,14.10
2022-09-28T17:33:31.217Z,14.10
2022-09-28T17:35:23.714Z,14.10
2022-09-28T17:36:56.877Z,14.10
2022-09-28T17:38:29.781Z,14.10
2022-09-28T17:40:02.864Z,14.10
2022-09-28T17:41:37.466Z,14.10
2022-09-28T17:43:10.774Z,14.00
2022-09-28T17:44:43.464Z,14.00
2022-09-28T17:46:27.223Z,14.00
2022-09-28T17:48:00.591Z,13.90
2022-09-28T17:49:33.289Z,13.90
2022-09-28T17:51:06.657Z,13.80
2022-09-28T17:52:39.357Z,13.80
2022-09-28T17:54:13.549Z,13.80
2022-09-28T17:55:46.270Z,13.80
2022-09-28T17:57:20.294Z,13.70
2022-09-28T17:58:53.453Z,13.70
2022-09-28T18:00:27.799Z,13.80
2022-09-28T18:02:02.337Z,13.70
2022-09-28T18:03:35.393Z,13.70
2022-09-28T18:05:10.369Z,13.70
2022-09-28T18:06:44.048Z,13.70
2022-09-28T18:08:19.289Z,13.70
2022-09-28T18:09:56.532Z,13.70
2022-09-28T18:11:29.250Z,13.60
2022-09-28T18:13:03.296Z,13.60
2022-09-28T18:14:36.613Z,13.60
2022-09-28T18:16:09.636Z,13.60
2022-09-28T18:17:42.399Z,13.50
2022-09-28T18:19:15.091Z,13.60
2022-09-28T18:20:48.015Z,13.60
2022-09-28T18:22:20.978Z,13.60
2022-09-28T18:23:53.664Z,13.60
2022-09-28T18:25:26.369Z,13.60
2022-09-28T18:26:59.168Z,13.50
2022-09-28T18:28:33.189Z,13.50
2022-09-28T18:30:07.281Z,13.50
2022-09-28T18:31:39.958Z,13.50
2022-09-28T18:33:13.898Z,13.50
2022-09-28T18:34:46.602Z,13.50
2022-09-28T18:36:19.292Z,13.50
2022-09-28T18:37:52.004Z,13.50
2022-09-28T18:39:26.395Z,13.50
2022-09-28T18:41:06.801Z,13.50
2022-09-28T18:42:39.794Z,13.40
2022-09-28T18:44:13.833Z,13.40
2022-09-28T18:45:47.061Z,13.40
2022-09-28T18:47:19.884Z,13.40
2022-09-28T18:48:52.748Z,13.30
2022-09-28T18:50:25.441Z,13.30
2022-09-28T18:51:58.364Z,13.30
2022-09-28T18:53:33.191Z,13.30
2022-09-28T18:55:07.481Z,13.20
2022-09-28T18:56:40.308Z,13.20
2022-09-28T18:58:14.077Z,13.30
2022-09-28T18:59:48.282Z,13.20
2022-09-28T19:01:30.761Z,13.20
2022-09-28T19:03:05.228Z,13.20
2022-09-28T19:04:38.350Z,13.20
2022-09-28T19:06:11.558Z,13.20
2022-09-28T19:07:44.386Z,13.20
2022-09-28T19:09:20.405Z,13.20
2022-09-28T19:10:53.300Z,13.20
2022-09-28T19:12:26.317Z,13.20
2022-09-28T19:13:59.030Z,13.20
2022-09-28T19:15:34.557Z,13.20
2022-09-28T19:17:07.621Z,13.20
2022-09-28T19:18:40.814Z,13.20
2022-09-28T19:20:13.505Z,13.20
2022-09-28T19:21:47.171Z,13.20
2022-09-28T19:23:19.928Z,13.10
2022-09-28T19:24:52.633Z,13.10
2022-09-28T19:26:27.773Z,13.10
2022-09-28T19:28:00.493Z,13.10
2022-09-28T19:29:33.216Z,13.00
2022-09-28T19:31:09.649Z,13.00
2022-09-28T19:32:42.777Z,13.00
2022-09-28T19:34:15.608Z,13.00
2022-09-28T19:35:56.361Z,12.90
2022-09-28T19:37:29.061Z,12.90
2022-09-28T19:39:03.599Z,12.90
2022-09-28T19:40:38.103Z,12.90
2022-09-28T19:42:10.861Z,12.90
2022-09-28T19:43:44.025Z,12.90
2022-09-28T19:45:16.912Z,12.80
2022-09-28T19:46:51.380Z,12.90
2022-09-28T19:48:27.579Z,12.80
2022-09-28T19:50:00.281Z,12.80
2022-09-28T19:51:33.041Z,12.80
2022-09-28T19:53:07.065Z,12.70
2022-09-28T19:54:39.775Z,12.80
2022-09-28T19:56:12.479Z,12.70
2022-09-28T19:57:47.875Z,12.70
2022-09-28T19:59:21.170Z,12.70
2022-09-28T20:00:53.908Z,12.70
2022-09-28T20:02:28.090Z,12.60
2022-09-28T20:04:00.987Z,12.60
2022-09-28T20:05:33.699Z,12.60
2022-09-28T20:07:06.406Z,12.60
2022-09-28T20:08:41.388Z,12.50
2022-09-28T20:10:16.893Z,12.50
2022-09-28T20:11:51.674Z,12.50
2022-09-28T20:13:25.256Z,12.40
2022-09-28T20:14:57.994Z,12.40
2022-09-28T20:16:30.714Z,12.40
2022-09-28T20:18:05.026Z,12.40
2022-09-28T20:19:38.179Z,12.40
2022-09-28T20:21:17.202Z,12.40
2022-09-28T20:22:51.725Z,12.30
2022-09-28T20:24:24.784Z,12.30
2022-09-28T20:25:57.625Z,12.30
2022-09-28T20:27:30.347Z,12.30
2022-09-28T20:29:03.054Z,12.30
2022-09-28T20:30:35.822Z,12.30
2022-09-28T20:32:08.761Z,12.30
2022-09-28T20:33:43.313Z,12.30
2022-09-28T20:35:26.097Z,12.30
2022-09-28T20:37:05.213Z,12.20
2022-09-28T20:38:40.400Z,12.20
2022-09-28T20:40:13.112Z,12.20
2022-09-28T20:41:47.096Z,12.20
2022-09-28T20:43:19.809Z,12.10
2022-09-28T20:44:52.531Z,12.10
2022-09-28T20:46:25.490Z,12.00
2022-09-28T20:47:59.330Z,12.10
2022-09-28T20:49:33.392Z,12.00
2022-09-28T20:51:10.128Z,11.90
2022-09-28T20:52:42.842Z,12.00
2022-09-28T20:54:15.572Z,11.90
2022-09-28T20:55:48.276Z,11.80
2022-09-28T20:57:21.283Z,11.80
2022-09-28T20:58:54.980Z,11.70
2022-09-28T21:00:27.684Z,11.80
2022-09-28T21:02:00.426Z,11.70
2022-09-28T21:03:32.223Z,11.70
2022-09-28T21:05:07.484Z,11.70
2022-09-28T21:06:42.806Z,11.70
2022-09-28T21:08:15.516Z,11.60
2022-09-28T21:09:48.350Z,11.60
2022-09-28T21:11:22.545Z,11.60
2022-09-28T21:12:55.434Z,11.70
2022-09-28T21:14:28.255Z,11.60
2022-09-28T21:16:02.738Z,11.60
2022-09-28T21:17:35.512Z,11.60